Time;durP1;ratioP1;P1;durP2;ratioP2;P2;SDS_P1;SDS_P2;PMS_P1;PMS_P2;Temp;Humidity;BMP_temperature;BMP_pressure;BME280_temperature;BME280_humidity;BME280_pressure;Samples;Min_cycle;Max_cycle;Signal;HPM_P1;HPM_P2
2021/12/23 00:02:21;;;;;;;44.47;18.73;;;-3.20;99.90;;;;;;4986362;28;20046;-66
2021/12/23 00:04:46;;;;;;;41.83;17.73;;;-3.20;99.90;;;;;;4984188;28;20046;-66
2021/12/23 00:07:12;;;;;;;47.67;18.58;;;-3.20;99.90;;;;;;4982681;28;20101;-67
2021/12/23 00:10:03;;;;;;;42.17;18.25;;;-3.20;99.90;;;;;;4987407;28;20037;-66
2021/12/23 00:12:23;;;;;;;41.72;17.58;;;-3.20;99.90;;;;;;4984235;28;20517;-66
2021/12/23 00:14:51;;;;;;;39.70;15.93;;;-3.10;99.90;;;;;;4983305;28;20043;-66
2021/12/23 00:23:24;;;;;;;42.95;17.73;;;-3.10;99.90;;;;;;4987469;28;20061;-66
2021/12/23 00:25:29;;;;;;;40.78;17.30;;;-3.10;99.90;;;;;;4978499;28;20704;-66
2021/12/23 00:27:55;;;;;;;42.13;16.45;;;-3.20;99.90;;;;;;4982038;28;20042;-66
2021/12/23 00:30:20;;;;;;;42.67;17.20;;;-3.20;99.90;;;;;;4981915;28;20030;-66
2021/12/23 00:32:46;;;;;;;43.97;16.58;;;-3.10;99.90;;;;;;4982830;28;20034;-66
2021/12/23 00:35:11;;;;;;;40.58;16.48;;;-3.10;99.90;;;;;;4981302;28;20180;-66
2021/12/23 00:37:43;;;;;;;40.58;17.30;;;-3.10;99.90;;;;;;4966606;28;20034;-66
2021/12/23 00:40:09;;;;;;;39.58;16.95;;;-3.00;99.90;;;;;;4981313;28;20509;-65
2021/12/23 00:42:34;;;;;;;36.70;16.48;;;-4.90;99.90;;;;;;4982660;28;20072;-66
2021/12/23 00:45:00;;;;;;;41.53;16.77;;;-3.00;99.90;;;;;;4983090;28;20030;-66
2021/12/23 00:47:25;;;;;;;41.67;16.70;;;-3.00;99.90;;;;;;4983353;28;20030;-66
2021/12/23 00:49:51;;;;;;;41.75;16.67;;;-3.00;99.90;;;;;;4981881;28;20529;-66
2021/12/23 00:52:22;;;;;;;37.28;16.83;;;-3.00;99.90;;;;;;4982461;28;20038;-65
2021/12/23 00:54:48;;;;;;;41.63;16.58;;;-3.00;99.90;;;;;;4981872;28;20046;-65
2021/12/23 00:57:13;;;;;;;37.30;17.27;;;-3.00;99.90;;;;;;4982830;28;20108;-66
2021/12/23 00:59:39;;;;;;;37.55;15.82;;;-3.10;99.90;;;;;;4982629;28;20034;-65
2021/12/23 01:02:07;;;;;;;36.97;16.38;;;-3.10;99.90;;;;;;4982898;28;20117;-66
2021/12/23 01:04:33;;;;;;;44.13;16.92;;;-3.10;99.90;;;;;;4981649;28;20488;-65
2021/12/23 01:06:58;;;;;;;36.92;16.95;;;-3.10;99.90;;;;;;4982434;28;20038;-65
2021/12/23 01:09:24;;;;;;;35.67;15.88;;;-3.10;99.90;;;;;;4982039;28;20049;-65
2021/12/23 01:11:50;;;;;;;39.58;16.35;;;-3.20;99.90;;;;;;4982181;28;20129;-65
2021/12/23 01:19:22;;;;;;;31.40;14.73;;;-3.30;99.90;;;;;;4981755;28;20041;-66
2021/12/23 01:21:47;;;;;;;37.58;15.93;;;-3.20;99.90;;;;;;4985816;28;20026;-65
2021/12/23 01:24:13;;;;;;;38.00;15.35;;;-3.30;99.90;;;;;;4981291;28;20084;-66
2021/12/23 01:26:38;;;;;;;39.53;16.67;;;-2.20;99.90;;;;;;4984436;28;20045;-65
2021/12/23 01:29:04;;;;;;;33.95;15.63;;;-3.30;99.90;;;;;;4981258;28;20677;-66
2021/12/23 01:31:29;;;;;;;36.10;15.80;;;-3.30;99.90;;;;;;4981299;28;20050;-65
2021/12/23 01:33:55;;;;;;;33.40;14.40;;;-3.30;99.90;;;;;;4980901;28;20030;-66
2021/12/23 01:36:22;;;;;;;40.22;16.52;;;-3.30;99.90;;;;;;4981285;28;20791;-65
2021/12/23 01:38:48;;;;;;;38.63;17.58;;;-3.30;99.90;;;;;;4980808;28;20065;-66
2021/12/23 01:41:13;;;;;;;41.97;16.55;;;-3.30;99.90;;;;;;4984269;28;20121;-66
2021/12/23 01:43:39;;;;;;;37.00;16.73;;;-3.30;99.90;;;;;;4981143;28;20066;-66
2021/12/23 01:46:04;;;;;;;36.20;15.52;;;-3.30;99.90;;;;;;4980868;28;20093;-66
2021/12/23 01:48:30;;;;;;;39.80;17.00;;;-3.40;99.90;;;;;;4980738;28;20513;-66
2021/12/23 01:50:55;;;;;;;41.53;16.77;;;-3.40;99.90;;;;;;4980857;28;20579;-65
2021/12/23 01:53:21;;;;;;;40.30;16.67;;;-3.40;99.90;;;;;;4981792;28;20038;-65
2021/12/23 01:55:46;;;;;;;40.78;16.00;;;-3.40;99.90;;;;;;4981075;28;20504;-66
2021/12/23 01:58:12;;;;;;;41.13;16.45;;;-3.40;99.90;;;;;;4982244;28;20038;-65
2021/12/23 02:00:38;;;;;;;42.85;17.55;;;-3.40;99.90;;;;;;4980243;28;20034;-65
2021/12/23 02:03:04;;;;;;;37.92;16.92;;;-3.30;99.90;;;;;;4983400;28;20045;-66
2021/12/23 02:05:30;;;;;;;40.22;16.40;;;-3.40;99.90;;;;;;4980817;28;20038;-66
2021/12/23 02:07:55;;;;;;;39.10;16.95;;;-3.40;99.90;;;;;;4980392;28;20026;-65
2021/12/23 02:10:22;;;;;;;39.80;17.10;;;-3.40;99.90;;;;;;4982293;28;20029;-66
2021/12/23 02:12:48;;;;;;;40.35;16.30;;;-3.30;99.90;;;;;;4980566;28;20477;-65
2021/12/23 02:15:13;;;;;;;42.45;17.27;;;-3.30;99.90;;;;;;4980296;28;20041;-65
2021/12/23 02:17:39;;;;;;;37.47;17.08;;;-3.30;99.90;;;;;;4982071;28;20557;-66
2021/12/23 02:20:04;;;;;;;36.58;16.30;;;-3.30;99.90;;;;;;4982457;28;20117;-66
2021/12/23 02:22:30;;;;;;;36.13;16.70;;;-3.40;99.90;;;;;;4980325;28;20034;-65
2021/12/23 02:24:55;;;;;;;37.85;17.30;;;-3.30;99.90;;;;;;4980004;28;20034;-65
2021/12/23 02:27:21;;;;;;;37.92;16.60;;;-3.30;99.90;;;;;;4980419;28;20502;-65
2021/12/23 02:29:46;;;;;;;34.22;16.35;;;-3.30;99.90;;;;;;4979327;28;20527;-66
2021/12/23 02:32:12;;;;;;;37.17;16.10;;;-3.30;99.90;;;;;;4983162;28;20046;-65
2021/12/23 02:34:37;;;;;;;38.65;15.75;;;-3.30;99.90;;;;;;4979725;28;20105;-65
2021/12/23 02:37:03;;;;;;;38.00;16.15;;;-3.30;99.90;;;;;;4980900;28;20470;-66
2021/12/23 02:39:28;;;;;;;32.22;15.05;;;-3.30;99.90;;;;;;4978368;28;20999;-65
2021/12/23 02:41:54;;;;;;;36.63;16.17;;;-3.20;99.90;;;;;;4979146;28;20038;-65
2021/12/23 02:44:19;;;;;;;36.35;16.50;;;-3.30;99.90;;;;;;4983846;28;20032;-65
2021/12/23 02:46:45;;;;;;;39.38;15.88;;;-3.10;99.90;;;;;;4979226;28;20942;-66
2021/12/23 02:49:10;;;;;;;34.25;15.32;;;-3.00;99.90;;;;;;4982390;28;20045;-65
2021/12/23 02:51:35;;;;;;;32.60;15.65;;;-3.20;99.90;;;;;;4985709;28;20133;-66
2021/12/23 02:54:01;;;;;;;35.60;15.52;;;-3.10;99.90;;;;;;4979323;28;20096;-66
2021/12/23 02:56:26;;;;;;;36.63;16.17;;;-3.00;99.90;;;;;;4980296;28;20089;-66
2021/12/23 02:58:52;;;;;;;34.85;16.35;;;-3.00;99.90;;;;;;4980157;28;20058;-66
2021/12/23 03:01:17;;;;;;;38.28;15.52;;;-2.90;99.90;;;;;;4979719;28;20092;-66
2021/12/23 03:03:43;;;;;;;39.03;15.88;;;-2.90;99.90;;;;;;4979419;28;20450;-66
2021/12/23 03:06:09;;;;;;;30.73;14.65;;;-2.90;99.90;;;;;;4981840;28;20030;-66
2021/12/23 03:08:34;;;;;;;36.35;16.77;;;-2.80;99.90;;;;;;4980012;28;20073;-65
2021/12/23 03:11:00;;;;;;;34.92;15.82;;;-2.90;99.90;;;;;;4979985;28;20398;-65
2021/12/23 03:13:25;;;;;;;31.27;15.48;;;-2.30;99.90;;;;;;4985616;28;20044;-66
2021/12/23 03:15:51;;;;;;;32.03;14.95;;;-3.10;99.90;;;;;;4982797;28;20038;-65
2021/12/23 03:18:17;;;;;;;34.88;15.98;;;;;;;;;;4982931;28;20034;-66
2021/12/23 03:20:43;;;;;;;34.30;16.00;;;;;;;;;;4986239;28;20043;-66
2021/12/23 03:23:08;;;;;;;35.13;16.25;;;-2.70;99.90;;;;;;4983012;28;20576;-66
2021/12/23 03:25:34;;;;;;;37.53;16.38;;;-2.80;99.90;;;;;;4983229;28;20065;-66
2021/12/23 03:28:00;;;;;;;38.30;16.77;;;;;;;;;;4983447;28;20022;-66
2021/12/23 03:30:25;;;;;;;40.17;16.50;;;-2.70;99.90;;;;;;4984827;28;20125;-66
2021/12/23 03:32:51;;;;;;;34.17;15.35;;;-2.60;99.90;;;;;;4985581;28;20084;-65
2021/12/23 03:35:16;;;;;;;39.53;16.40;;;-2.70;99.90;;;;;;4982598;28;20026;-65
2021/12/23 03:37:42;;;;;;;34.72;15.88;;;-2.70;99.90;;;;;;4982785;28;20479;-65
2021/12/23 03:40:07;;;;;;;38.03;16.40;;;-3.20;99.90;;;;;;4982678;28;20038;-65
2021/12/23 03:42:33;;;;;;;30.60;15.20;;;-3.00;99.90;;;;;;4986297;28;20758;-65
2021/12/23 03:44:59;;;;;;;34.72;15.98;;;-2.70;99.90;;;;;;4984657;28;20049;-65
2021/12/23 03:47:24;;;;;;;37.72;15.65;;;-2.70;99.90;;;;;;4982691;28;20034;-66
2021/12/23 03:49:50;;;;;;;33.40;16.38;;;-2.50;99.90;;;;;;4983839;28;20109;-66
2021/12/23 03:52:15;;;;;;;32.90;16.05;;;-3.10;99.90;;;;;;4982157;28;20972;-66
2021/12/23 03:54:41;;;;;;;30.73;15.65;;;;;;;;;;4986754;28;20034;-66
2021/12/23 03:57:07;;;;;;;34.05;15.07;;;;;;;;;;4985642;28;20034;-66
2021/12/23 03:59:33;;;;;;;34.05;16.05;;;;;;;;;;4982012;28;20628;-66
2021/12/23 04:01:59;;;;;;;38.38;16.45;;;;;;;;;;4982190;28;20042;-66
2021/12/23 04:04:25;;;;;;;35.15;16.13;;;;;;;;;;4983802;28;20030;-65
2021/12/23 04:06:51;;;;;;;40.85;16.90;;;-2.60;99.90;;;;;;4982875;28;20788;-65
2021/12/23 04:09:17;;;;;;;35.08;16.60;;;;;;;;;;4973035;28;20035;-65
2021/12/23 04:11:43;;;;;;;37.00;16.55;;;-2.70;99.90;;;;;;4983227;28;20042;-65
2021/12/23 04:14:08;;;;;;;35.78;15.98;;;-2.70;99.90;;;;;;4986028;28;20074;-66
2021/12/23 04:16:34;;;;;;;33.22;16.17;;;-2.70;99.90;;;;;;4987484;28;20042;-65
2021/12/23 04:18:59;;;;;;;37.67;15.85;;;-2.70;99.90;;;;;;4983925;28;20026;-63
2021/12/23 04:21:25;;;;;;;36.90;16.98;;;-2.70;99.90;;;;;;4987874;28;20561;-64
2021/12/23 04:23:51;;;;;;;34.50;16.13;;;-2.70;99.90;;;;;;4982598;28;20061;-64
2021/12/23 04:26:16;;;;;;;35.95;16.45;;;-2.70;99.90;;;;;;4989373;28;20710;-64
2021/12/23 04:28:46;;;;;;;37.83;17.60;;;-2.80;99.90;;;;;;4983915;28;20514;-64
2021/12/23 04:31:11;;;;;;;36.97;17.00;;;-2.80;99.90;;;;;;4982539;28;20054;-66
2021/12/23 04:33:37;;;;;;;35.35;16.17;;;-2.60;99.90;;;;;;4982914;28;20105;-66
2021/12/23 04:36:02;;;;;;;39.90;17.10;;;-2.60;99.90;;;;;;4984717;28;20407;-66
2021/12/23 04:38:28;;;;;;;33.88;15.77;;;-2.60;99.90;;;;;;4982261;28;20026;-66
2021/12/23 04:40:53;;;;;;;38.03;17.08;;;-2.80;99.90;;;;;;4981725;28;20052;-66
2021/12/23 04:43:19;;;;;;;40.65;16.42;;;;;;;;;;4981149;28;20030;-66
2021/12/23 04:45:45;;;;;;;33.13;15.73;;;;;;;;;;4981844;28;20038;-66
2021/12/23 04:48:11;;;;;;;38.40;16.05;;;;;;;;;;4982485;28;20189;-66
2021/12/23 04:50:37;;;;;;;37.80;15.65;;;;;;;;;;4982107;28;20179;-66
2021/12/23 04:53:03;;;;;;;39.13;16.77;;;;;;;;;;4982462;28;20030;-65
2021/12/23 04:55:30;;;;;;;37.15;18.08;;;;;;;;;;4969434;28;20635;-66
2021/12/23 04:57:56;;;;;;;35.00;16.83;;;;;;;;;;4984143;28;20042;-66
2021/12/23 05:00:22;;;;;;;39.50;17.92;;;-2.70;99.90;;;;;;4983505;28;20026;-65
2021/12/23 05:02:48;;;;;;;39.83;17.08;;;-2.80;99.90;;;;;;4982770;28;20077;-65
2021/12/23 05:05:13;;;;;;;36.85;17.50;;;-2.70;99.90;;;;;;4982290;28;20038;-65
2021/12/23 05:07:39;;;;;;;37.45;17.90;;;-2.70;99.90;;;;;;4982651;28;20140;-65
2021/12/23 05:10:04;;;;;;;39.85;18.85;;;-2.70;99.90;;;;;;4985812;28;20042;-65
2021/12/23 05:12:29;;;;;;;42.78;19.48;;;-1.90;99.90;;;;;;4982196;28;20113;-65
2021/12/23 05:14:55;;;;;;;39.47;18.02;;;-2.60;99.90;;;;;;4982196;28;20398;-65
2021/12/23 05:17:20;;;;;;;39.20;18.08;;;-2.60;99.90;;;;;;4982405;28;20478;-65
2021/12/23 05:19:46;;;;;;;41.70;17.65;;;-2.30;99.90;;;;;;4982119;28;20026;-65
2021/12/23 05:22:12;;;;;;;37.67;17.50;;;;;;;;;;4981910;28;20064;-65
2021/12/23 05:24:37;;;;;;;37.95;17.55;;;-2.60;99.90;;;;;;4982337;28;20820;-66
2021/12/23 05:27:03;;;;;;;47.60;19.50;;;-2.50;99.90;;;;;;4980876;28;20046;-65
2021/12/23 05:29:28;;;;;;;36.53;17.65;;;-2.40;99.90;;;;;;4981151;28;20042;-65
2021/12/23 05:31:54;;;;;;;45.00;18.40;;;-2.40;99.90;;;;;;4981834;28;20034;-66
2021/12/23 05:34:19;;;;;;;42.45;18.70;;;-2.40;99.90;;;;;;4984491;28;20083;-65
2021/12/23 05:36:45;;;;;;;40.67;18.33;;;-2.40;99.90;;;;;;4980748;28;20050;-65
2021/12/23 05:39:10;;;;;;;42.03;18.65;;;-2.30;99.90;;;;;;4983815;28;20510;-65
2021/12/23 05:41:36;;;;;;;36.08;17.42;;;-2.40;99.90;;;;;;4981613;28;20075;-65
2021/12/23 05:44:01;;;;;;;41.13;18.20;;;-2.40;99.90;;;;;;4980451;28;20032;-65
2021/12/23 05:46:27;;;;;;;35.22;16.85;;;-2.40;99.90;;;;;;4984934;28;20022;-65
2021/12/23 05:48:52;;;;;;;37.10;18.17;;;-2.40;99.90;;;;;;4981461;28;20026;-66
2021/12/23 05:51:17;;;;;;;38.42;18.13;;;-2.40;99.90;;;;;;4980815;28;20022;-65
2021/12/23 05:53:43;;;;;;;36.85;18.23;;;-2.40;99.90;;;;;;4980832;28;20576;-65
2021/12/23 05:56:09;;;;;;;41.10;17.52;;;;;;;;;;4981183;28;20042;-65
2021/12/23 05:58:35;;;;;;;38.50;17.02;;;;;;;;;;4980951;28;20566;-66
2021/12/23 06:01:01;;;;;;;35.65;16.58;;;;;;;;;;4980988;28;20040;-66
2021/12/23 06:03:27;;;;;;;37.80;16.45;;;;;;;;;;4983744;28;20026;-66
2021/12/23 06:05:53;;;;;;;36.75;16.33;;;;;;;;;;4980753;28;20077;-66
2021/12/23 06:08:18;;;;;;;37.05;17.55;;;-2.00;99.90;;;;;;4982791;28;20030;-66
2021/12/23 06:10:44;;;;;;;38.75;17.52;;;-2.00;99.90;;;;;;4980842;28;20038;-66
2021/12/23 06:13:09;;;;;;;40.58;17.35;;;-2.10;99.90;;;;;;4981606;28;20681;-65
2021/12/23 06:15:35;;;;;;;37.25;17.85;;;-2.10;99.90;;;;;;4982708;28;20034;-65
2021/12/23 06:18:00;;;;;;;38.58;17.00;;;-2.00;99.90;;;;;;4983739;28;20041;-66
2021/12/23 06:20:26;;;;;;;39.83;18.00;;;-2.10;99.90;;;;;;4980385;28;20397;-66
2021/12/23 06:22:51;;;;;;;38.15;17.95;;;-2.10;99.90;;;;;;4980736;28;20045;-65
2021/12/23 06:25:17;;;;;;;37.65;18.17;;;-2.10;99.90;;;;;;4980517;28;20030;-65
2021/12/23 06:27:42;;;;;;;38.58;17.85;;;-2.10;99.90;;;;;;4980278;28;20037;-65
2021/12/23 06:30:21;;;;;;;39.05;16.75;;;-2.10;99.90;;;;;;4980125;28;20089;-65
2021/12/23 06:32:46;;;;;;;43.90;17.75;;;-2.20;99.90;;;;;;4981195;28;20057;-65
2021/12/23 06:35:12;;;;;;;40.05;18.60;;;-2.30;99.90;;;;;;4978284;28;20026;-65
2021/12/23 06:37:37;;;;;;;37.47;17.98;;;-2.30;99.90;;;;;;4980335;28;20034;-65
2021/12/23 06:40:03;;;;;;;36.85;17.73;;;-2.20;99.90;;;;;;4979649;28;20069;-66
2021/12/23 06:42:28;;;;;;;40.65;17.77;;;-2.20;99.90;;;;;;4975922;28;20035;-65
2021/12/23 06:44:54;;;;;;;47.80;18.02;;;-2.10;99.90;;;;;;4979762;28;20049;-65
2021/12/23 06:47:19;;;;;;;35.70;17.33;;;-2.00;99.90;;;;;;4979798;28;20041;-66
2021/12/23 06:49:47;;;;;;;36.85;17.42;;;-2.00;99.90;;;;;;4981159;28;20046;-65
2021/12/23 06:52:12;;;;;;;40.55;18.40;;;-1.90;99.90;;;;;;4979052;28;20477;-65
2021/12/23 06:54:42;;;;;;;35.92;17.38;;;-1.90;99.90;;;;;;4977727;28;20038;-66
2021/12/23 06:57:07;;;;;;;37.95;17.90;;;-1.90;99.90;;;;;;4983331;28;20042;-65
2021/12/23 06:59:33;;;;;;;36.60;17.67;;;-2.00;99.90;;;;;;4981087;28;20473;-66
2021/12/23 07:01:58;;;;;;;42.15;17.50;;;-1.80;99.90;;;;;;4982142;28;20041;-65
2021/12/23 07:04:29;;;;;;;36.60;17.27;;;-2.00;99.90;;;;;;4980624;28;20042;-65
2021/12/23 07:07:08;;;;;;;41.47;19.17;;;-1.90;99.90;;;;;;4979756;28;20129;-65
2021/12/23 07:09:34;;;;;;;37.17;15.85;;;-1.90;99.90;;;;;;4979561;28;20069;-64
2021/12/23 07:11:59;;;;;;;37.20;16.38;;;-1.90;99.90;;;;;;4982384;28;20733;-65
2021/12/23 07:14:25;;;;;;;41.90;18.15;;;-1.90;99.90;;;;;;4981488;28;20038;-64
2021/12/23 07:16:50;;;;;;;38.67;17.80;;;-1.80;99.90;;;;;;4979195;28;20546;-64
2021/12/23 07:19:16;;;;;;;40.95;18.58;;;-1.80;99.90;;;;;;4979896;28;20050;-64
2021/12/23 07:21:41;;;;;;;35.03;17.00;;;-1.80;99.90;;;;;;4978859;28;20889;-64
2021/12/23 07:24:07;;;;;;;39.65;17.70;;;-1.90;99.90;;;;;;4978960;28;20038;-64
2021/12/23 07:26:32;;;;;;;40.47;17.27;;;-1.90;99.90;;;;;;4978930;28;20046;-64
2021/12/23 07:28:58;;;;;;;42.55;18.55;;;-1.90;99.90;;;;;;4982165;28;20041;-64
2021/12/23 07:31:23;;;;;;;36.38;17.27;;;-1.90;99.90;;;;;;4980099;28;20412;-64
2021/12/23 07:33:49;;;;;;;38.05;17.48;;;-1.90;99.90;;;;;;4977736;28;20054;-64
2021/12/23 07:36:14;;;;;;;39.63;18.40;;;-1.80;99.90;;;;;;4978305;28;20042;-64
2021/12/23 07:38:40;;;;;;;38.15;17.48;;;-1.80;99.90;;;;;;4983899;28;20030;-64
2021/12/23 07:41:05;;;;;;;37.65;17.02;;;-1.70;99.90;;;;;;4978064;28;20042;-64
2021/12/23 07:45:59;;;;;;;41.05;18.58;;;-1.80;99.90;;;;;;4977400;28;20095;-65
2021/12/23 07:48:24;;;;;;;43.13;18.48;;;-1.70;99.90;;;;;;4977989;28;20038;-64
2021/12/23 07:50:50;;;;;;;39.92;18.10;;;-1.70;99.90;;;;;;4977848;28;20123;-64
2021/12/23 07:53:15;;;;;;;41.63;17.27;;;-1.70;99.90;;;;;;4993016;28;20057;-64
2021/12/23 07:55:42;;;;;;;39.92;17.58;;;-1.70;99.90;;;;;;4979071;28;20154;-64
2021/12/23 07:58:08;;;;;;;46.08;20.80;;;-1.80;99.90;;;;;;4980947;28;20455;-64
2021/12/23 08:00:33;;;;;;;105.05;40.33;;;-2.30;99.90;;;;;;4993585;28;20043;-64
2021/12/23 08:02:59;;;;;;;193.25;87.90;;;-1.80;99.90;;;;;;4981129;28;20034;-66
2021/12/23 08:05:24;;;;;;;69.22;35.08;;;-1.70;99.90;;;;;;4981742;28;20129;-64
2021/12/23 08:07:49;;;;;;;41.08;20.02;;;-1.70;99.90;;;;;;4987084;28;20790;-67
2021/12/23 08:10:15;;;;;;;35.25;17.60;;;-1.70;99.90;;;;;;4983515;28;20112;-64
2021/12/23 08:12:41;;;;;;;36.63;17.05;;;-1.70;99.90;;;;;;4981673;28;20554;-63
2021/12/23 08:15:06;;;;;;;36.88;17.55;;;-1.60;99.90;;;;;;4981689;28;20042;-64
2021/12/23 08:17:32;;;;;;;37.60;17.40;;;-1.50;99.90;;;;;;4981569;28;20080;-64
2021/12/23 08:19:58;;;;;;;45.67;18.25;;;;;;;;;;4986327;28;20479;-64
2021/12/23 08:22:24;;;;;;;37.33;15.93;;;;;;;;;;4989875;28;20116;-64
2021/12/23 08:24:50;;;;;;;40.65;16.83;;;;;;;;;;4981200;28;20147;-64
2021/12/23 08:27:15;;;;;;;38.75;17.50;;;-1.40;99.90;;;;;;4985343;28;20038;-63
2021/12/23 08:29:41;;;;;;;42.63;17.02;;;-1.20;99.90;;;;;;4986126;28;20026;-63
2021/12/23 08:32:07;;;;;;;37.30;15.95;;;;;;;;;;4982531;28;20483;-64
2021/12/23 08:34:37;;;;;;;37.53;16.25;;;;;;;;;;4983781;28;20045;-64
2021/12/23 08:37:06;;;;;;;41.10;17.77;;;-1.20;99.90;;;;;;4989172;28;20041;-64
2021/12/23 08:39:32;;;;;;;32.83;16.25;;;-1.10;99.90;;;;;;4986986;28;20478;-64
2021/12/23 08:41:57;;;;;;;35.88;17.02;;;;;;;;;;4981358;28;20046;-64
2021/12/23 08:44:23;;;;;;;36.70;15.73;;;;;;;;;;4981050;28;20030;-64
2021/12/23 08:46:49;;;;;;;40.63;16.58;;;;;;;;;;4981966;28;20585;-64
2021/12/23 08:49:15;;;;;;;34.72;14.63;;;;;;;;;;4982956;28;20065;-65
2021/12/23 08:51:43;;;;;;;37.58;16.38;;;-1.10;99.90;;;;;;4983783;28;20042;-64
2021/12/23 08:54:08;;;;;;;33.50;16.27;;;-1.10;99.90;;;;;;4982801;28;20042;-64
2021/12/23 08:56:33;;;;;;;38.33;17.00;;;-1.00;99.90;;;;;;4976750;28;20104;-64
2021/12/23 08:58:59;;;;;;;35.22;16.55;;;-0.90;99.90;;;;;;4980894;28;20646;-64
2021/12/23 09:01:24;;;;;;;79.78;32.95;;;-1.10;99.90;;;;;;4980937;28;20455;-64
2021/12/23 09:03:50;;;;;;;39.70;18.73;;;-1.00;99.90;;;;;;4980505;28;20128;-65
2021/12/23 09:06:15;;;;;;;35.40;16.45;;;-1.00;99.90;;;;;;4984460;28;20030;-64
2021/12/23 09:08:41;;;;;;;35.58;15.63;;;-1.00;99.90;;;;;;4981584;28;20045;-64
2021/12/23 09:11:06;;;;;;;32.17;15.18;;;-1.00;99.90;;;;;;4981035;28;21076;-64
2021/12/23 09:13:32;;;;;;;36.85;15.52;;;-0.90;99.90;;;;;;4981215;28;20038;-64
2021/12/23 09:15:57;;;;;;;33.75;15.70;;;-0.90;99.90;;;;;;4981648;28;20041;-65
2021/12/23 09:18:23;;;;;;;30.88;15.48;;;0.20;99.90;;;;;;4981435;28;20023;-64
2021/12/23 09:20:48;;;;;;;39.70;15.55;;;-0.70;99.90;;;;;;4980293;28;20398;-64
2021/12/23 09:23:14;;;;;;;37.08;16.25;;;-0.70;99.90;;;;;;4981051;28;20744;-64
2021/12/23 09:25:39;;;;;;;37.17;16.40;;;-0.10;99.90;;;;;;4981208;28;20109;-64
2021/12/23 09:33:17;;;;;;;30.70;14.23;;;-0.60;99.90;;;;;;4980450;28;20500;-64
2021/12/23 09:35:42;;;;;;;29.25;13.63;;;-0.50;99.90;;;;;;4981285;28;20038;-65
2021/12/23 09:38:08;;;;;;;30.98;14.35;;;-0.50;99.90;;;;;;4980971;28;20044;-64
2021/12/23 09:40:34;;;;;;;29.50;13.25;;;-0.40;99.90;;;;;;4980216;28;20533;-64
2021/12/23 09:42:59;;;;;;;30.65;14.13;;;-0.40;99.90;;;;;;4974351;28;20357;-64
2021/12/23 09:45:25;;;;;;;27.67;13.00;;;-0.40;99.90;;;;;;4977183;28;20038;-64
2021/12/23 09:47:50;;;;;;;27.27;13.38;;;-0.30;99.90;;;;;;4983838;28;20492;-64
2021/12/23 09:50:16;;;;;;;28.52;13.27;;;-0.30;99.90;;;;;;4982342;28;20030;-65
2021/12/23 09:52:42;;;;;;;31.10;13.38;;;;;;;;;;4980314;28;20034;-65
2021/12/23 09:55:08;;;;;;;28.27;13.80;;;;;;;;;;4979880;28;20073;-65
2021/12/23 09:57:34;;;;;;;31.30;13.55;;;;;;;;;;4980396;28;20177;-65
2021/12/23 10:00:00;;;;;;;26.88;12.80;;;;;;;;;;4979960;28;20030;-65
2021/12/23 10:02:26;;;;;;;26.25;13.40;;;;;;;;;;4983506;28;20033;-65
2021/12/23 10:04:52;;;;;;;30.50;13.18;;;;;;;;;;4982353;28;20792;-65
2021/12/23 10:07:18;;;;;;;33.08;12.82;;;;;;;;;;4980639;28;20026;-65
2021/12/23 10:09:59;;;;;;;32.83;13.20;;;;;;;;;;4979882;28;20042;-65
2021/12/23 10:31:21;;;;;;;31.02;13.20;;;0.00;99.90;;;;;;4977202;28;20031;-65
2021/12/23 10:37:03;;;;;;;24.58;12.13;;;0.00;99.90;;;;;;4966327;28;20042;-65
2021/12/23 10:39:17;;;;;;;27.48;12.80;;;0.10;99.90;;;;;;4993238;28;20034;-64
2021/12/23 10:41:42;;;;;;;26.67;12.50;;;0.20;99.90;;;;;;4978967;28;20092;-65
2021/12/23 10:44:08;;;;;;;24.23;12.13;;;0.30;99.90;;;;;;4975098;28;20065;-65
2021/12/23 10:46:33;;;;;;;30.98;12.73;;;0.30;99.90;;;;;;4976052;28;20077;-65
2021/12/23 10:51:30;;;;;;;24.38;12.52;;;0.40;99.90;;;;;;4982644;28;20114;-65
2021/12/23 10:54:20;;;;;;;26.73;13.82;;;0.50;99.90;;;;;;4979353;28;20039;-65
2021/12/23 10:59:30;;;;;;;24.05;12.20;;;0.50;99.90;;;;;;4977725;28;20580;-65
2021/12/23 11:01:56;;;;;;;20.42;10.82;;;0.50;99.90;;;;;;4977850;28;20030;-65
2021/12/23 11:04:21;;;;;;;26.50;12.70;;;0.50;99.90;;;;;;4975302;28;20757;-65
2021/12/23 11:06:56;;;;;;;22.83;11.40;;;0.60;99.90;;;;;;4959769;28;20088;-65
2021/12/23 11:28:23;;;;;;;37.03;16.67;;;0.90;99.90;;;;;;4980164;28;20045;-66
2021/12/23 11:43:51;;;;;;;24.15;11.73;;;;;;;;;;4978700;28;20999;-65
2021/12/23 11:46:17;;;;;;;25.45;11.77;;;;;;;;;;4977905;28;20030;-65
2021/12/23 11:48:45;;;;;;;22.88;11.63;;;;;;;;;;4980159;28;20744;-65
2021/12/23 11:51:21;;;;;;;28.23;12.13;;;;;;;;;;4987118;28;20083;-65
2021/12/23 11:53:48;;;;;;;22.27;11.45;;;;;;;;;;4981220;28;20038;-65
2021/12/23 11:56:14;;;;;;;22.63;11.52;;;;;;;;;;4985475;28;20446;-65
2021/12/23 11:58:46;;;;;;;22.77;10.85;;;;;;;;;;4982581;28;20030;-65
2021/12/23 12:01:11;;;;;;;22.88;11.18;;;1.60;99.90;;;;;;4982499;28;20038;-65
2021/12/23 12:03:37;;;;;;;22.08;11.40;;;;;;;;;;4981530;28;20045;-65
2021/12/23 12:06:03;;;;;;;23.77;10.88;;;;;;;;;;4982494;28;20042;-70
2021/12/23 12:08:29;;;;;;;25.25;11.40;;;1.70;99.90;;;;;;4982116;28;20045;-69
2021/12/23 12:10:55;;;;;;;23.70;10.82;;;;;;;;;;4981440;28;20081;-69
2021/12/23 12:13:21;;;;;;;27.58;11.48;;;;;;;;;;4979831;28;20559;-69
2021/12/23 12:15:50;;;;;;;23.42;11.52;;;;;;;;;;4980469;28;20089;-69
2021/12/23 12:18:16;;;;;;;22.48;11.32;;;1.30;99.90;;;;;;4979366;28;20152;-69
2021/12/23 12:23:36;;;;;;;23.13;11.20;;;;;;;;;;4974476;28;20878;-69
2021/12/23 12:26:03;;;;;;;29.02;11.80;;;;;;;;;;4982383;28;20023;-65
2021/12/23 12:28:29;;;;;;;21.85;11.65;;;;;;;;;;4982739;28;20093;-64
2021/12/23 12:30:55;;;;;;;22.60;10.35;;;;;;;;;;4980718;28;20046;-64
2021/12/23 12:33:20;;;;;;;25.67;11.60;;;1.20;99.90;;;;;;4981791;28;20109;-65
2021/12/23 12:35:46;;;;;;;27.02;13.45;;;;;;;;;;4986777;28;20034;-65
2021/12/23 12:38:12;;;;;;;25.17;11.95;;;1.30;99.90;;;;;;4985603;28;20033;-65
2021/12/23 12:40:37;;;;;;;27.33;11.82;;;1.20;99.90;;;;;;4983964;28;20037;-64
2021/12/23 12:43:02;;;;;;;25.55;12.25;;;1.20;99.90;;;;;;4983773;28;20058;-64
2021/12/23 12:45:28;;;;;;;21.10;11.23;;;1.20;99.90;;;;;;4985498;28;20761;-63
2021/12/23 12:47:59;;;;;;;24.40;11.60;;;0.90;99.90;;;;;;4988432;28;20042;-64
2021/12/23 12:50:25;;;;;;;22.88;11.07;;;;;;;;;;4984429;28;20049;-64
2021/12/23 12:52:54;;;;;;;21.10;10.77;;;;;;;;;;4986566;28;20446;-64
2021/12/23 12:55:23;;;;;;;21.60;11.35;;;1.40;99.90;;;;;;4986768;28;20052;-64
2021/12/23 12:57:49;;;;;;;23.08;11.23;;;;;;;;;;4984512;28;20041;-64
2021/12/23 13:00:15;;;;;;;23.58;11.10;;;;;;;;;;4983400;28;20036;-65
2021/12/23 13:02:40;;;;;;;21.95;11.00;;;1.30;99.90;;;;;;4982131;28;20042;-65
2021/12/23 13:05:09;;;;;;;21.98;11.48;;;1.30;99.90;;;;;;4984091;28;20026;-64
2021/12/23 13:07:54;;;;;;;25.08;11.50;;;1.20;99.90;;;;;;4958973;28;20572;-65
2021/12/23 13:10:49;;;;;;;22.08;11.20;;;;;;;;;;4973052;28;20062;-66
2021/12/23 13:13:36;;;;;;;24.98;11.82;;;;;;;;;;4979841;28;20060;-66
2021/12/23 13:16:23;;;;;;;25.50;12.20;;;1.30;99.90;;;;;;4977796;28;20039;-66
2021/12/23 13:18:49;;;;;;;23.33;12.25;;;1.30;99.90;;;;;;4984165;28;20057;-66
2021/12/23 13:21:15;;;;;;;27.40;13.30;;;1.50;99.90;;;;;;4981750;28;20815;-66
2021/12/23 13:23:43;;;;;;;29.00;14.52;;;1.40;99.90;;;;;;4981737;28;20046;-66
2021/12/23 13:26:09;;;;;;;27.33;13.30;;;1.50;99.90;;;;;;4981645;28;20112;-66
2021/12/23 13:28:35;;;;;;;33.08;15.35;;;1.50;99.90;;;;;;4986490;28;20046;-66
2021/12/23 13:31:01;;;;;;;27.38;14.75;;;1.50;99.90;;;;;;4985480;28;20038;-66
2021/12/23 13:33:26;;;;;;;24.88;13.32;;;1.50;99.90;;;;;;4978855;28;20044;-64
2021/12/23 13:35:52;;;;;;;25.15;12.80;;;1.50;99.90;;;;;;4981643;28;20031;-64
2021/12/23 13:38:17;;;;;;;26.08;13.10;;;1.50;99.90;;;;;;4983572;28;20034;-65
2021/12/23 13:40:47;;;;;;;23.88;12.68;;;1.50;99.90;;;;;;4981066;28;20042;-65
2021/12/23 13:43:12;;;;;;;29.95;13.40;;;1.70;99.90;;;;;;4974965;28;20680;-65
2021/12/23 13:45:38;;;;;;;26.55;12.65;;;1.40;99.90;;;;;;4982719;28;20038;-64
2021/12/23 13:48:03;;;;;;;30.98;14.18;;;1.50;99.90;;;;;;4978045;28;20042;-65
2021/12/23 13:50:29;;;;;;;25.77;12.55;;;1.40;99.90;;;;;;4982320;28;20045;-65
2021/12/23 13:52:54;;;;;;;21.05;11.48;;;1.50;99.90;;;;;;4981390;28;20112;-64
2021/12/23 13:55:20;;;;;;;28.85;12.10;;;1.40;99.90;;;;;;4980347;28;20030;-65
2021/12/23 13:57:51;;;;;;;24.88;12.30;;;2.10;99.90;;;;;;4979695;28;20035;-64
2021/12/23 14:00:17;;;;;;;24.52;12.43;;;1.50;99.90;;;;;;4979555;28;20034;-65
2021/12/23 14:02:43;;;;;;;26.10;12.70;;;1.70;99.90;;;;;;4983396;28;20049;-65
2021/12/23 14:05:08;;;;;;;20.92;11.30;;;1.50;99.90;;;;;;4979505;28;20034;-64